Terminal Aerodrome Forecast
Issued by NWS Corpus Christi, TX

Home | Current Version | Previous Version | Text Only | Print | Product List | Glossary On
Versions: 1 2 3 4 5 6 7 8 9 10 11 12 13 14 15 16 17 18 19 20 21 22 23 24 25 26 27 28
000
FTUS44 KCRP 272334
TAFVCT
TAF
KVCT 272334Z 2800/2824 12005KT P6SM SCT025 BKN100
     FM280300 VRB03KT 4SM BR OVC004
      TEMPO 2804/2808 1SM BR OVC002
     FM280900 35008KT P6SM BKN008 OVC150
     FM281400 34015G22KT P6SM BKN015 OVC150
     FM281800 34018G26KT P6SM BKN040=

USA.gov is the U.S. government's official web portal to all federal, state and local government web resources and services.